createdAt,value
2023-04-28T00:02:27.119Z,1.40
2023-04-28T00:04:56.704Z,1.40
2023-04-28T00:07:25.371Z,1.37
2023-04-28T00:09:53.034Z,1.36
2023-04-28T00:12:20.666Z,1.33
2023-04-28T00:14:48.349Z,1.30
2023-04-28T00:17:15.985Z,1.31
2023-04-28T00:19:43.667Z,1.31
2023-04-28T00:22:12.641Z,1.34
2023-04-28T00:24:41.825Z,1.32
2023-04-28T00:27:09.481Z,1.32
2023-04-28T00:29:37.794Z,1.30
2023-04-28T00:32:05.482Z,1.30
2023-04-28T00:34:33.909Z,1.28
2023-04-28T00:37:01.600Z,1.25
2023-04-28T00:39:31.000Z,1.23
2023-04-28T00:41:58.927Z,1.21
2023-04-28T00:44:26.523Z,1.19
2023-04-28T00:46:54.822Z,1.19
2023-04-28T00:49:22.657Z,1.17
2023-04-28T00:51:50.411Z,1.17
2023-04-28T00:54:18.366Z,1.16
2023-04-28T00:56:48.721Z,1.15
2023-04-28T00:59:16.381Z,1.13
2023-04-28T01:01:44.854Z,1.13
2023-04-28T01:04:12.893Z,1.17
2023-04-28T01:06:42.744Z,1.17
2023-04-28T01:09:10.478Z,1.21
2023-04-28T01:11:38.047Z,1.24
2023-04-28T01:14:07.161Z,1.27
2023-04-28T01:16:35.250Z,1.31
2023-04-28T01:19:04.206Z,1.35
2023-04-28T01:21:32.910Z,1.42
2023-04-28T01:24:02.053Z,1.48
2023-04-28T01:26:29.670Z,1.55
2023-04-28T01:28:57.281Z,1.61
2023-04-28T01:31:25.586Z,1.65
2023-04-28T01:33:53.316Z,1.69
2023-04-28T01:36:22.560Z,1.73
2023-04-28T01:38:50.828Z,1.77
2023-04-28T01:41:19.846Z,1.83
2023-04-28T01:43:47.502Z,1.87
2023-04-28T01:46:15.193Z,1.93
2023-04-28T01:48:42.841Z,1.98
2023-04-28T01:51:10.665Z,2.06
2023-04-28T01:53:38.315Z,2.12
2023-04-28T01:56:06.137Z,2.18
2023-04-28T01:58:35.119Z,2.21
2023-04-28T02:01:02.781Z,2.26
2023-04-28T02:03:30.524Z,2.32
2023-04-28T02:05:58.997Z,2.38
2023-04-28T02:08:26.646Z,2.42
2023-04-28T02:10:54.285Z,2.47
2023-04-28T02:13:21.881Z,2.52
2023-04-28T02:15:50.935Z,2.56
2023-04-28T02:18:18.523Z,2.61
2023-04-28T02:20:46.296Z,2.65
2023-04-28T02:23:13.983Z,2.68
2023-04-28T02:25:41.618Z,2.72
2023-04-28T02:28:09.175Z,2.79
2023-04-28T02:30:36.754Z,2.83
2023-04-28T02:33:06.291Z,2.89
2023-04-28T02:35:33.904Z,2.95
2023-04-28T02:38:01.596Z,2.98
2023-04-28T02:40:29.331Z,2.99
2023-04-28T02:42:56.944Z,3.02
2023-04-28T02:45:24.541Z,3.02
2023-04-28T02:47:52.183Z,3.06
2023-04-28T02:50:21.395Z,3.06
2023-04-28T02:52:49.313Z,3.06
2023-04-28T02:55:23.880Z,3.07
2023-04-28T02:57:51.635Z,3.09
2023-04-28T03:00:19.736Z,3.09
2023-04-28T03:02:47.531Z,3.10
2023-04-28T03:05:15.599Z,3.09
2023-04-28T03:07:44.661Z,3.08
2023-04-28T03:10:12.588Z,3.11
2023-04-28T03:12:40.514Z,3.11
2023-04-28T03:15:09.431Z,3.13
2023-04-28T03:17:39.089Z,3.14
2023-04-28T03:20:08.038Z,3.15
2023-04-28T03:22:35.958Z,3.15
2023-04-28T03:25:05.394Z,3.15
2023-04-28T03:27:33.088Z,3.15
2023-04-28T03:30:00.729Z,3.15
2023-04-28T03:32:28.376Z,3.12
2023-04-28T03:34:56.114Z,3.12
2023-04-28T03:37:23.832Z,3.13
2023-04-28T03:39:51.489Z,3.11
2023-04-28T03:42:20.481Z,3.09
2023-04-28T03:44:48.130Z,3.07
2023-04-28T03:47:15.871Z,3.07
2023-04-28T03:49:43.477Z,3.07
2023-04-28T03:52:11.295Z,3.05
2023-04-28T03:54:38.868Z,3.05
2023-04-28T03:57:06.464Z,3.08
2023-04-28T03:59:35.456Z,3.06
2023-04-28T04:02:03.190Z,3.07
2023-04-28T04:04:31.193Z,3.10
2023-04-28T04:06:59.796Z,3.12
2023-04-28T04:09:27.419Z,3.15
2023-04-28T04:11:55.229Z,3.16
2023-04-28T04:14:22.823Z,3.18
2023-04-28T04:16:52.009Z,3.21
2023-04-28T04:19:19.656Z,3.24
2023-04-28T04:21:47.459Z,3.25
2023-04-28T04:24:15.343Z,3.24
2023-04-28T04:26:43.170Z,3.29
2023-04-28T04:29:10.888Z,3.39
2023-04-28T04:31:38.808Z,3.58
2023-04-28T04:34:07.794Z,3.66
2023-04-28T04:36:35.755Z,3.70
2023-04-28T04:39:03.632Z,3.74
2023-04-28T04:41:31.304Z,3.75
2023-04-28T04:43:58.915Z,3.77
2023-04-28T04:46:26.859Z,3.77
2023-04-28T04:48:54.489Z,3.77
2023-04-28T04:51:23.480Z,3.80
2023-04-28T04:53:51.227Z,3.85
2023-04-28T04:56:18.841Z,3.91
2023-04-28T04:58:46.424Z,4.47
2023-04-28T05:01:14.000Z,5.85
2023-04-28T05:03:41.626Z,7.10
2023-04-28T05:06:09.282Z,8.26
2023-04-28T05:08:38.258Z,9.24
2023-04-28T05:11:06.104Z,10.00
2023-04-28T05:13:33.751Z,10.84
2023-04-28T05:16:01.480Z,11.39
2023-04-28T05:18:29.296Z,12.03
2023-04-28T05:20:56.895Z,12.49
2023-04-28T05:23:25.018Z,12.85
2023-04-28T05:25:53.989Z,13.26
2023-04-28T05:28:22.161Z,13.81
2023-04-28T05:30:50.059Z,14.49
2023-04-28T05:33:17.610Z,14.06
2023-04-28T05:35:45.334Z,14.07
2023-04-28T05:38:12.979Z,14.17
2023-04-28T05:40:40.562Z,14.37
2023-04-28T05:43:09.515Z,14.74
2023-04-28T05:45:37.342Z,15.13
2023-04-28T05:48:05.637Z,15.20
2023-04-28T05:50:33.385Z,15.17
2023-04-28T05:53:00.987Z,15.34
2023-04-28T05:55:28.931Z,15.53
2023-04-28T05:57:56.562Z,15.50
2023-04-28T06:00:25.994Z,15.57
2023-04-28T06:02:53.726Z,15.26
2023-04-28T06:05:21.978Z,14.72
2023-04-28T06:07:50.322Z,14.63
2023-04-28T06:10:18.335Z,14.41
2023-04-28T06:12:46.393Z,14.66
2023-04-28T06:15:13.994Z,15.06
2023-04-28T06:17:43.422Z,14.81
2023-04-28T06:20:13.950Z,15.17
2023-04-28T06:22:41.782Z,15.56
2023-04-28T06:25:10.343Z,15.84
2023-04-28T06:27:38.218Z,16.25
2023-04-28T06:30:07.009Z,16.41
2023-04-28T06:32:34.754Z,16.32
2023-04-28T06:35:03.852Z,16.46
2023-04-28T06:37:31.707Z,16.22
2023-04-28T06:39:59.307Z,16.59
2023-04-28T06:42:27.395Z,16.74
2023-04-28T06:44:54.958Z,16.59
2023-04-28T06:47:22.587Z,16.37
2023-04-28T06:49:50.620Z,16.93
2023-04-28T06:52:27.218Z,17.09
2023-04-28T06:55:00.660Z,16.92
2023-04-28T06:57:28.319Z,16.05
2023-04-28T06:59:56.006Z,16.03
2023-04-28T07:02:23.714Z,16.25
2023-04-28T07:04:51.435Z,16.55
2023-04-28T07:07:20.429Z,17.26
2023-04-28T07:09:48.191Z,17.10
2023-04-28T07:12:16.235Z,16.67
2023-04-28T07:14:43.851Z,17.00
2023-04-28T07:17:11.537Z,16.24
2023-04-28T07:19:39.166Z,15.87
2023-04-28T07:22:06.829Z,16.24
2023-04-28T07:24:36.045Z,15.50
2023-04-28T07:27:04.302Z,15.37
2023-04-28T07:29:34.077Z,15.26
2023-04-28T07:32:02.166Z,15.31
2023-04-28T07:34:30.231Z,15.08
2023-04-28T07:36:58.258Z,14.48
2023-04-28T07:39:26.168Z,14.02
2023-04-28T07:41:57.945Z,13.39
2023-04-28T07:44:25.706Z,13.61
2023-04-28T07:46:54.405Z,13.70
2023-04-28T07:49:22.100Z,13.43
2023-04-28T07:51:51.153Z,13.35
2023-04-28T07:54:19.121Z,13.15
2023-04-28T07:56:47.175Z,12.75
2023-04-28T07:59:16.258Z,12.87
2023-04-28T08:01:43.898Z,12.61
2023-04-28T08:04:12.356Z,12.43
2023-04-28T08:06:40.241Z,12.47
2023-04-28T08:09:07.911Z,12.42
2023-04-28T08:11:35.775Z,12.62
2023-04-28T08:14:03.599Z,12.33
2023-04-28T08:16:32.957Z,12.64
2023-04-28T08:19:00.797Z,12.67
2023-04-28T08:21:28.621Z,12.62
2023-04-28T08:23:56.246Z,12.61
2023-04-28T08:26:25.053Z,12.63
2023-04-28T08:28:52.675Z,13.06
2023-04-28T08:31:20.324Z,13.05
2023-04-28T08:33:51.194Z,12.82
2023-04-28T08:36:19.304Z,12.69
2023-04-28T08:38:47.355Z,12.82
2023-04-28T08:41:16.768Z,12.66
2023-04-28T08:43:45.503Z,12.72
2023-04-28T08:46:15.864Z,12.57
2023-04-28T08:48:45.208Z,12.88
2023-04-28T08:51:18.590Z,13.04
2023-04-28T08:56:23.237Z,13.11
2023-04-28T08:58:52.372Z,12.85
2023-04-28T09:01:20.041Z,12.81
2023-04-28T09:03:49.281Z,13.13
2023-04-28T09:06:18.554Z,12.99
2023-04-28T09:08:46.328Z,13.13
2023-04-28T09:11:14.762Z,13.15
2023-04-28T09:13:42.546Z,13.30
2023-04-28T09:16:10.416Z,13.22
2023-04-28T09:18:38.108Z,13.24
2023-04-28T09:21:07.740Z,13.33
2023-04-28T09:23:49.104Z,13.30
2023-04-28T09:26:16.820Z,13.48
2023-04-28T09:28:44.471Z,13.50
2023-04-28T09:31:24.007Z,13.82
2023-04-28T09:33:58.333Z,13.53
2023-04-28T09:36:30.613Z,13.63
2023-04-28T09:39:00.331Z,14.01
2023-04-28T09:41:37.905Z,14.18
2023-04-28T09:44:13.027Z,14.16
2023-04-28T09:46:41.173Z,14.32
2023-04-28T09:49:09.354Z,14.51
2023-04-28T09:51:37.568Z,14.36
2023-04-28T09:54:07.115Z,14.42
2023-04-28T09:56:40.741Z,14.70
2023-04-28T09:59:08.438Z,14.81
2023-04-28T10:01:39.610Z,14.91
2023-04-28T10:04:09.028Z,15.09
2023-04-28T10:06:37.381Z,15.28
2023-04-28T10:09:07.283Z,15.09
2023-04-28T10:11:35.634Z,14.98
2023-04-28T10:14:03.275Z,14.50
2023-04-28T10:16:32.661Z,14.50
2023-04-28T10:19:03.103Z,14.44
2023-04-28T10:21:37.316Z,14.42
2023-04-28T10:24:11.632Z,14.45
2023-04-28T10:27:09.337Z,14.88
2023-04-28T10:29:37.612Z,14.80
2023-04-28T10:32:19.613Z,14.70
2023-04-28T10:34:48.158Z,14.75
2023-04-28T10:37:17.136Z,14.69
2023-04-28T10:40:18.053Z,14.54
2023-04-28T10:42:57.492Z,14.21
2023-04-28T10:46:04.670Z,14.24
2023-04-28T10:49:00.049Z,14.15
2023-04-28T10:51:31.854Z,14.48
2023-04-28T10:54:19.209Z,14.50
2023-04-28T10:57:21.313Z,14.55
2023-04-28T10:59:51.643Z,14.63
2023-04-28T11:02:44.209Z,14.58
2023-04-28T11:05:22.664Z,14.58
2023-04-28T11:08:30.903Z,14.64
2023-04-28T11:11:18.542Z,14.90
2023-04-28T11:13:47.836Z,15.11
2023-04-28T11:16:18.554Z,15.07
2023-04-28T11:18:55.907Z,15.07
2023-04-28T11:21:26.003Z,14.90
2023-04-28T11:23:53.680Z,15.07
2023-04-28T11:26:23.511Z,15.16
2023-04-28T11:28:56.163Z,15.59
2023-04-28T11:31:26.594Z,15.56
2023-04-28T11:33:57.626Z,15.74
2023-04-28T11:36:31.907Z,15.88
2023-04-28T11:39:00.167Z,15.69
2023-04-28T11:41:27.857Z,15.58
2023-04-28T11:43:55.606Z,15.78
2023-04-28T11:46:26.193Z,15.86
2023-04-28T11:49:05.626Z,16.05
2023-04-28T11:51:38.445Z,15.99
2023-04-28T11:54:07.875Z,16.28
2023-04-28T11:56:38.935Z,16.17
2023-04-28T11:59:09.111Z,16.10
2023-04-28T12:01:46.813Z,16.27
2023-04-28T12:04:15.459Z,16.12
2023-04-28T12:06:43.275Z,16.22
2023-04-28T12:09:18.045Z,16.31
2023-04-28T12:11:56.910Z,16.31
2023-04-28T12:14:25.279Z,16.55
2023-04-28T12:16:54.369Z,16.26
2023-04-28T12:19:22.355Z,16.21
2023-04-28T12:22:04.455Z,16.14
2023-04-28T12:24:33.404Z,15.72
2023-04-28T12:27:18.036Z,15.50
2023-04-28T12:29:47.251Z,15.67
2023-04-28T12:32:17.343Z,15.75
2023-04-28T12:34:47.279Z,15.50
2023-04-28T12:37:15.122Z,15.40
2023-04-28T12:39:43.479Z,15.87
2023-04-28T12:42:11.716Z,15.83
2023-04-28T12:44:40.736Z,16.09
2023-04-28T12:47:10.773Z,16.29
2023-04-28T12:49:39.985Z,16.19
2023-04-28T12:52:07.857Z,16.30
2023-04-28T12:54:35.798Z,16.08
2023-04-28T12:57:04.021Z,15.85
2023-04-28T12:59:32.633Z,15.86
2023-04-28T13:02:00.672Z,15.52
2023-04-28T13:04:28.548Z,15.71
2023-04-28T13:06:58.461Z,15.64
2023-04-28T13:09:27.083Z,15.72
2023-04-28T13:11:55.133Z,15.72
2023-04-28T13:14:23.994Z,15.39
2023-04-28T13:16:51.961Z,15.53
2023-04-28T13:19:19.646Z,15.47
2023-04-28T13:21:47.972Z,15.31
2023-04-28T13:24:17.064Z,15.31
2023-04-28T13:26:45.295Z,15.22
2023-04-28T13:29:14.332Z,15.20
2023-04-28T13:31:42.157Z,15.28
2023-04-28T13:34:15.716Z,15.25
2023-04-28T13:36:43.515Z,14.92
2023-04-28T13:39:14.074Z,14.89
2023-04-28T13:41:43.467Z,14.77
2023-04-28T13:44:11.295Z,14.54
2023-04-28T13:46:39.270Z,14.50
2023-04-28T13:49:07.276Z,14.67
2023-04-28T13:51:35.272Z,14.62
2023-04-28T13:54:04.384Z,14.62
2023-04-28T13:56:33.426Z,14.52
2023-04-28T13:59:02.423Z,14.53
2023-04-28T14:01:30.622Z,14.50
2023-04-28T14:03:58.527Z,14.45
2023-04-28T14:06:27.595Z,14.52
2023-04-28T14:08:55.385Z,14.43
2023-04-28T14:11:23.233Z,14.53
2023-04-28T14:13:50.858Z,14.42
2023-04-28T14:16:19.962Z,14.35
2023-04-28T14:18:47.780Z,14.19
2023-04-28T14:21:15.423Z,14.28
2023-04-28T14:23:43.096Z,13.82
2023-04-28T14:26:10.904Z,13.66
2023-04-28T14:28:38.554Z,13.56
2023-04-28T14:31:08.672Z,13.46
2023-04-28T14:33:37.997Z,13.58
2023-04-28T14:36:06.056Z,13.55
2023-04-28T14:38:33.660Z,13.65
2023-04-28T14:41:01.314Z,13.60
2023-04-28T14:43:28.957Z,13.55
2023-04-28T14:45:56.662Z,13.30
2023-04-28T14:48:24.310Z,13.35
2023-04-28T14:50:53.416Z,13.13
2023-04-28T14:53:21.196Z,13.23
2023-04-28T14:55:49.404Z,12.97
2023-04-28T14:58:17.178Z,12.91
2023-04-28T15:00:45.249Z,12.88
2023-04-28T15:03:13.435Z,12.69
2023-04-28T15:05:41.167Z,12.81
2023-04-28T15:08:11.575Z,12.47
2023-04-28T15:10:40.653Z,12.42
2023-04-28T15:13:08.656Z,12.41
2023-04-28T15:15:36.859Z,12.29
2023-04-28T15:18:04.964Z,12.24
2023-04-28T15:20:34.074Z,12.05
2023-04-28T15:23:01.906Z,12.03
2023-04-28T15:25:31.294Z,11.95
2023-04-28T15:27:59.001Z,11.88
2023-04-28T15:30:26.677Z,11.73
2023-04-28T15:32:54.842Z,11.76
2023-04-28T15:35:22.663Z,11.71
2023-04-28T15:37:52.106Z,11.58
2023-04-28T15:40:21.283Z,11.43
2023-04-28T15:42:52.021Z,11.41
2023-04-28T15:45:20.770Z,11.28
2023-04-28T15:47:50.445Z,11.19
2023-04-28T15:50:20.131Z,11.03
2023-04-28T15:52:49.977Z,11.07
2023-04-28T15:55:19.895Z,11.06
2023-04-28T15:57:48.326Z,10.97
2023-04-28T16:00:17.896Z,10.91
2023-04-28T16:02:46.466Z,10.95
2023-04-28T16:05:14.450Z,11.01
2023-04-28T16:07:42.141Z,11.00
2023-04-28T16:10:11.742Z,11.06
2023-04-28T16:12:40.511Z,11.06
2023-04-28T16:15:09.975Z,10.95
2023-04-28T16:17:39.676Z,10.94
2023-04-28T16:20:09.507Z,10.90
2023-04-28T16:22:38.083Z,10.89
2023-04-28T16:25:06.703Z,10.80
2023-04-28T16:27:34.967Z,10.86
2023-04-28T16:30:02.660Z,10.82
2023-04-28T16:32:31.328Z,10.73
2023-04-28T16:35:00.605Z,10.67
2023-04-28T16:37:28.184Z,10.61
2023-04-28T16:39:56.669Z,10.67
2023-04-28T16:42:24.631Z,10.55
2023-04-28T16:44:53.085Z,10.56
2023-04-28T16:47:21.130Z,10.53
2023-04-28T16:49:49.225Z,10.43
2023-04-28T16:52:18.421Z,10.33
2023-04-28T16:54:46.182Z,10.27
2023-04-28T16:57:13.834Z,10.19
2023-04-28T16:59:41.604Z,10.10
2023-04-28T17:02:09.361Z,10.05
2023-04-28T17:04:37.768Z,9.97
2023-04-28T17:07:05.886Z,9.97
2023-04-28T17:09:34.891Z,9.95
2023-04-28T17:12:03.545Z,9.85
2023-04-28T17:14:31.303Z,9.86
2023-04-28T17:16:59.034Z,9.87
2023-04-28T17:19:27.380Z,9.87
2023-04-28T17:21:55.593Z,9.85
2023-04-28T17:24:24.614Z,9.79
2023-04-28T17:26:54.967Z,9.73
2023-04-28T17:29:23.148Z,9.71
2023-04-28T17:31:50.908Z,9.70
2023-04-28T17:34:19.927Z,9.66
2023-04-28T17:36:47.780Z,9.63
2023-04-28T17:39:16.541Z,9.65
2023-04-28T17:41:44.925Z,9.64
2023-04-28T17:44:14.094Z,9.64
2023-04-28T17:46:41.823Z,9.64
2023-04-28T17:49:09.438Z,9.60
2023-04-28T17:51:38.083Z,9.60
2023-04-28T17:54:09.613Z,9.58
2023-04-28T17:56:38.891Z,9.58
2023-04-28T17:59:08.214Z,9.52
2023-04-28T18:01:37.255Z,9.43
2023-04-28T18:04:05.128Z,9.44
2023-04-28T18:06:32.717Z,9.41
2023-04-28T18:09:00.350Z,9.36
2023-04-28T18:11:28.088Z,9.35
2023-04-28T18:13:56.009Z,9.32
2023-04-28T18:16:23.665Z,9.29
2023-04-28T18:18:52.805Z,9.30
2023-04-28T18:21:20.526Z,9.28
2023-04-28T18:23:48.242Z,9.20
2023-04-28T18:26:16.362Z,9.19
2023-04-28T18:28:46.997Z,9.14
2023-04-28T18:31:14.876Z,9.15
2023-04-28T18:33:42.530Z,9.15
2023-04-28T18:36:11.634Z,9.09
2023-04-28T18:38:39.292Z,9.07
2023-04-28T18:41:14.136Z,9.04
2023-04-28T18:43:42.640Z,8.99
2023-04-28T18:46:10.899Z,8.95
2023-04-28T18:48:39.011Z,8.96
2023-04-28T18:51:06.785Z,8.93
2023-04-28T18:53:36.635Z,8.86
2023-04-28T18:56:04.777Z,8.82
2023-04-28T18:58:32.677Z,8.81
2023-04-28T19:01:00.491Z,8.77
2023-04-28T19:03:28.446Z,8.69
2023-04-28T19:05:56.153Z,8.71
2023-04-28T19:08:24.290Z,8.69
2023-04-28T19:10:53.219Z,8.67
2023-04-28T19:13:20.788Z,8.64
2023-04-28T19:15:48.388Z,8.61
2023-04-28T19:18:16.460Z,8.66
2023-04-28T19:20:44.060Z,8.62
2023-04-28T19:23:11.626Z,8.64
2023-04-28T19:25:39.395Z,8.60
2023-04-28T19:28:08.441Z,8.62
2023-04-28T19:30:36.643Z,8.65
2023-04-28T19:33:04.624Z,8.64
2023-04-28T19:35:33.324Z,8.61
2023-04-28T19:38:01.106Z,8.59
2023-04-28T19:40:30.046Z,8.59
2023-04-28T19:42:57.664Z,8.56
2023-04-28T19:45:26.955Z,8.56
2023-04-28T19:47:55.464Z,8.55
2023-04-28T19:50:23.169Z,8.47
2023-04-28T19:52:50.944Z,8.44
2023-04-28T19:55:21.187Z,8.45
2023-04-28T19:57:48.802Z,8.42
2023-04-28T20:00:16.896Z,8.42
2023-04-28T20:02:46.094Z,8.41
2023-04-28T20:05:14.968Z,8.42
2023-04-28T20:07:43.509Z,8.39
2023-04-28T20:10:11.688Z,8.37
2023-04-28T20:12:39.429Z,8.37
2023-04-28T20:15:08.570Z,8.34
2023-04-28T20:17:36.379Z,8.33
2023-04-28T20:20:06.576Z,8.28
2023-04-28T20:22:35.352Z,8.30
2023-04-28T20:25:05.897Z,8.32
2023-04-28T20:27:34.502Z,8.29
2023-04-28T20:30:02.232Z,8.29
2023-04-28T20:32:29.909Z,8.31
2023-04-28T20:34:57.600Z,8.33
2023-04-28T20:37:26.950Z,8.34
2023-04-28T20:39:54.598Z,8.38
2023-04-28T20:42:22.355Z,8.37
2023-04-28T20:44:50.760Z,8.37
2023-04-28T20:47:18.804Z,8.37
2023-04-28T20:49:47.351Z,8.39
2023-04-28T20:52:14.968Z,8.41
2023-04-28T20:54:43.938Z,8.40
2023-04-28T20:57:12.023Z,8.40
2023-04-28T20:59:39.613Z,8.45
2023-04-28T21:02:08.678Z,8.48
2023-04-28T21:04:36.652Z,8.47
2023-04-28T21:07:04.320Z,8.46
2023-04-28T21:09:31.934Z,8.48
2023-04-28T21:12:02.089Z,8.41
2023-04-28T21:14:30.173Z,8.44
2023-04-28T21:16:57.845Z,8.41
2023-04-28T21:19:25.813Z,8.40
2023-04-28T21:21:53.432Z,8.39
2023-04-28T21:24:21.058Z,8.39
2023-04-28T21:26:48.813Z,8.41
2023-04-28T21:29:18.606Z,8.41
2023-04-28T21:31:46.927Z,8.41
2023-04-28T21:34:14.604Z,8.39
2023-04-28T21:36:42.176Z,8.39
2023-04-28T21:39:10.422Z,8.42
2023-04-28T21:41:38.271Z,8.45
2023-04-28T21:44:05.979Z,8.44
2023-04-28T21:46:35.345Z,8.51
2023-04-28T21:49:03.425Z,8.49
2023-04-28T21:51:31.960Z,8.45
2023-04-28T21:53:59.595Z,8.45
2023-04-28T21:56:27.192Z,8.38
2023-04-28T21:58:54.815Z,8.41
2023-04-28T22:01:22.660Z,8.38
2023-04-28T22:03:51.762Z,8.34
2023-04-28T22:06:19.635Z,8.34
2023-04-28T22:08:47.476Z,8.32
2023-04-28T22:11:15.087Z,8.30
2023-04-28T22:13:42.720Z,8.29
2023-04-28T22:16:11.878Z,8.28
2023-04-28T22:18:39.594Z,8.28
2023-04-28T22:21:09.321Z,8.29
2023-04-28T22:23:36.926Z,8.27
2023-04-28T22:26:04.560Z,8.32
2023-04-28T22:28:32.484Z,8.31
2023-04-28T22:31:00.136Z,8.30
2023-04-28T22:33:27.896Z,8.31
2023-04-28T22:35:55.527Z,8.31
2023-04-28T22:38:24.506Z,8.26
2023-04-28T22:40:52.518Z,8.19
2023-04-28T22:43:20.142Z,8.15
2023-04-28T22:45:47.775Z,8.19
2023-04-28T22:48:15.514Z,8.18
2023-04-28T22:50:43.508Z,8.26
2023-04-28T22:53:11.189Z,8.26
2023-04-28T22:55:40.120Z,8.26
2023-04-28T22:58:08.327Z,8.27
2023-04-28T23:00:38.950Z,8.25
2023-04-28T23:03:06.668Z,8.22
2023-04-28T23:05:37.948Z,8.26
2023-04-28T23:08:05.904Z,8.23
2023-04-28T23:10:33.467Z,8.24
2023-04-28T23:13:02.439Z,8.25
2023-04-28T23:15:30.109Z,8.28
2023-04-28T23:17:57.825Z,8.30
2023-04-28T23:20:25.814Z,8.31
2023-04-28T23:22:56.569Z,8.27
2023-04-28T23:25:24.259Z,8.27
2023-04-28T23:27:51.922Z,8.31
2023-04-28T23:30:21.100Z,8.28
2023-04-28T23:32:48.754Z,8.28
2023-04-28T23:35:17.177Z,8.27
2023-04-28T23:37:44.712Z,8.29
2023-04-28T23:40:13.166Z,8.22
2023-04-28T23:42:41.053Z,8.23
2023-04-28T23:45:10.219Z,8.19
2023-04-28T23:47:40.361Z,8.10
2023-04-28T23:50:09.620Z,8.07
2023-04-28T23:52:38.285Z,8.04
2023-04-28T23:55:06.854Z,7.98
2023-04-28T23:57:34.469Z,7.94
